createdAt,value
2022-12-31T00:00:07.900Z,100295.06
2022-12-31T00:02:35.198Z,100303.34
2022-12-31T00:05:02.149Z,100311.78
2022-12-31T00:07:28.696Z,100311.47
2022-12-31T00:09:55.179Z,100306.50
2022-12-31T00:12:21.641Z,100317.81
2022-12-31T00:14:48.101Z,100313.91
2022-12-31T00:17:14.608Z,100315.09
2022-12-31T00:19:41.117Z,100325.66
2022-12-31T00:22:07.581Z,100324.13
2022-12-31T00:24:35.809Z,100333.03
2022-12-31T00:27:02.308Z,100334.22
2022-12-31T00:29:28.798Z,100336.19
2022-12-31T00:31:55.277Z,100338.91
2022-12-31T00:34:21.725Z,100345.56
2022-12-31T00:36:48.364Z,100341.34
2022-12-31T00:39:14.845Z,100341.00
2022-12-31T00:41:43.979Z,100334.38
2022-12-31T00:44:14.481Z,100353.34
2022-12-31T00:49:07.159Z,100347.19
2022-12-31T00:51:33.678Z,100347.34
2022-12-31T00:54:00.412Z,100338.91
2022-12-31T00:56:29.807Z,100350.84
2022-12-31T00:58:56.897Z,100349.75
2022-12-31T01:01:32.981Z,100345.84
2022-12-31T01:04:03.768Z,100351.00
2022-12-31T01:06:31.083Z,100352.75
2022-12-31T01:08:57.640Z,100352.00
2022-12-31T01:11:28.916Z,100358.63
2022-12-31T01:13:57.100Z,100363.03
2022-12-31T01:16:33.216Z,100357.28
2022-12-31T01:19:02.026Z,100362.25
2022-12-31T01:21:29.294Z,100360.75
2022-12-31T01:23:55.837Z,100367.38
2022-12-31T01:26:22.438Z,100360.47
2022-12-31T01:28:49.197Z,100365.41
2022-12-31T01:31:17.876Z,100367.09
2022-12-31T01:33:45.151Z,100367.84
2022-12-31T01:36:23.379Z,100360.94
2022-12-31T01:38:52.226Z,100368.28
2022-12-31T01:41:21.759Z,100372.19
2022-12-31T01:43:54.797Z,100378.84
2022-12-31T01:46:29.633Z,100376.13
2022-12-31T01:49:00.628Z,100378.09
2022-12-31T01:51:31.029Z,100390.13
2022-12-31T01:53:58.899Z,100387.41
2022-12-31T01:56:26.106Z,100394.78
2022-12-31T01:58:56.286Z,100397.94
2022-12-31T02:01:29.400Z,100385.13
2022-12-31T02:03:56.992Z,100394.50
2022-12-31T02:06:55.645Z,100388.31
2022-12-31T02:09:22.078Z,100386.81
2022-12-31T02:11:48.835Z,100400.78
2022-12-31T02:14:18.856Z,100388.03
2022-12-31T02:16:48.265Z,100391.16
2022-12-31T02:19:14.641Z,100385.31
2022-12-31T02:21:57.033Z,100400.78
2022-12-31T02:24:40.075Z,100398.09
2022-12-31T02:27:25.051Z,100394.19
2022-12-31T02:29:58.200Z,100385.75
2022-12-31T02:32:37.025Z,100385.75
2022-12-31T02:35:12.268Z,100385.00
2022-12-31T02:37:42.056Z,100374.63
2022-12-31T02:40:14.262Z,100382.44
2022-12-31T02:42:40.727Z,100375.06
2022-12-31T02:45:08.320Z,100367.41
2022-12-31T02:47:51.255Z,100367.41
2022-12-31T02:50:32.527Z,100370.13
2022-12-31T02:53:14.593Z,100371.31
2022-12-31T02:56:09.837Z,100370.56
2022-12-31T02:59:00.499Z,100368.75
2022-12-31T03:01:53.106Z,100364.81
2022-12-31T03:04:33.233Z,100364.06
2022-12-31T03:07:12.690Z,100358.84
2022-12-31T03:09:39.461Z,100354.91
2022-12-31T03:12:27.005Z,100352.97
2022-12-31T03:14:53.808Z,100365.75
2022-12-31T03:17:20.289Z,100359.28
2022-12-31T03:20:05.390Z,100357.03
2022-12-31T03:22:36.298Z,100365.91
2022-12-31T03:25:35.053Z,100363.66
2022-12-31T03:28:03.923Z,100364.41
2022-12-31T03:30:31.861Z,100365.16
2022-12-31T03:32:58.649Z,100364.41
2022-12-31T03:35:27.215Z,100352.22
2022-12-31T03:37:53.789Z,100358.38
2022-12-31T03:40:22.338Z,100347.84
2022-12-31T03:42:48.936Z,100345.88
2022-12-31T03:45:16.223Z,100354.47
2022-12-31T03:47:43.246Z,100348.56
2022-12-31T03:50:12.321Z,100362.59
2022-12-31T03:52:39.177Z,100359.88
2022-12-31T03:55:06.884Z,100367.25
2022-12-31T03:57:33.690Z,100367.25
2022-12-31T04:00:00.342Z,100371.47
2022-12-31T04:02:29.315Z,100374.94
2022-12-31T04:04:56.210Z,100375.84
2022-12-31T04:07:23.062Z,100366.94
2022-12-31T04:09:49.563Z,100370.41
2022-12-31T04:12:16.039Z,100368.13
2022-12-31T04:14:42.477Z,100362.72
2022-12-31T04:17:09.087Z,100362.44
2022-12-31T04:19:35.657Z,100363.66
2022-12-31T04:22:02.118Z,100358.97
2022-12-31T04:24:28.697Z,100352.38
2022-12-31T04:26:55.116Z,100354.31
2022-12-31T04:29:21.672Z,100375.66
2022-12-31T04:31:48.507Z,100381.53
2022-12-31T04:34:14.979Z,100403.50
2022-12-31T04:36:41.445Z,100395.38
2022-12-31T04:39:07.968Z,100385.44
2022-12-31T04:41:34.603Z,100383.94
2022-12-31T04:44:01.161Z,100400.94
2022-12-31T04:46:30.719Z,100392.81
2022-12-31T04:48:57.406Z,100397.47
2022-12-31T04:51:27.204Z,100400.63
2022-12-31T04:53:53.817Z,100401.84
2022-12-31T04:56:20.893Z,100409.97
2022-12-31T04:58:47.349Z,100422.75
2022-12-31T05:01:16.431Z,100413.13
2022-12-31T05:03:42.987Z,100414.63
2022-12-31T05:06:15.866Z,100414.63
2022-12-31T05:08:42.647Z,100425.47
2022-12-31T05:11:09.947Z,100422.00
2022-12-31T05:13:36.488Z,100414.63
2022-12-31T05:16:04.183Z,100423.19
2022-12-31T05:18:31.510Z,100428.63
2022-12-31T05:20:58.057Z,100422.75
2022-12-31T05:23:24.887Z,100421.38
2022-12-31T05:25:52.232Z,100416.28
2022-12-31T05:28:19.172Z,100419.00
2022-12-31T05:30:48.802Z,100415.53
2022-12-31T05:33:15.471Z,100407.84
2022-12-31T05:35:41.994Z,100397.03
2022-12-31T05:38:08.689Z,100389.34
2022-12-31T05:40:35.145Z,100383.94
2022-12-31T05:43:01.601Z,100387.09
2022-12-31T05:45:30.987Z,100381.53
2022-12-31T05:47:58.342Z,100373.84
2022-12-31T05:50:24.976Z,100363.03
2022-12-31T05:52:51.501Z,100363.34
2022-12-31T05:55:19.514Z,100359.88
2022-12-31T05:57:46.081Z,100370.69
2022-12-31T06:00:13.334Z,100372.97
2022-12-31T06:02:39.804Z,100384.09
2022-12-31T06:05:06.662Z,100390.88
2022-12-31T06:07:33.282Z,100403.06
2022-12-31T06:09:59.947Z,100402.47
2022-12-31T06:12:26.687Z,100411.94
2022-12-31T06:14:53.147Z,100408.75
2022-12-31T06:17:20.540Z,100420.53
2022-12-31T06:19:47.109Z,100419.94
2022-12-31T06:22:13.753Z,100425.16
2022-12-31T06:24:40.163Z,100421.09
2022-12-31T06:27:06.688Z,100422.03
2022-12-31T06:29:33.128Z,100413.31
2022-12-31T06:31:59.610Z,100419.31
2022-12-31T06:34:26.191Z,100418.72
2022-12-31T06:36:52.709Z,100417.38
2022-12-31T06:39:19.174Z,100429.53
2022-12-31T06:41:45.705Z,100441.41
2022-12-31T06:44:12.266Z,100438.56
2022-12-31T06:46:38.751Z,100431.47
2022-12-31T06:49:05.277Z,100437.19
2022-12-31T06:51:31.744Z,100438.25
2022-12-31T06:53:58.277Z,100449.22
2022-12-31T06:56:33.860Z,100442.16
2022-12-31T06:59:02.191Z,100454.94
2022-12-31T07:01:51.250Z,100464.44
2022-12-31T07:04:20.769Z,100464.13
2022-12-31T07:06:53.374Z,100467.59
2022-12-31T07:09:43.183Z,100462.19
2022-12-31T07:12:16.501Z,100464.75
2022-12-31T07:15:04.119Z,100456.41
2022-12-31T07:17:52.549Z,100462.91
2022-12-31T07:20:20.558Z,100437.59
2022-12-31T07:22:47.671Z,100427.06
2022-12-31T07:25:16.920Z,100437.41
2022-12-31T07:27:55.631Z,100433.06
2022-12-31T07:30:29.943Z,100426.41
2022-12-31T07:33:40.611Z,100442.97
2022-12-31T07:36:42.270Z,100443.28
2022-12-31T07:39:29.272Z,100460.59
2022-12-31T07:41:58.687Z,100459.41
2022-12-31T07:44:37.074Z,100471.00
2022-12-31T07:47:05.499Z,100472.50
2022-12-31T07:49:33.723Z,100466.63
2022-12-31T07:52:00.500Z,100466.63
2022-12-31T07:54:29.056Z,100457.56
2022-12-31T07:56:55.533Z,100471.13
2022-12-31T07:59:33.717Z,100463.28
2022-12-31T08:02:58.719Z,100456.34
2022-12-31T08:05:48.457Z,100464.78
2022-12-31T08:08:23.708Z,100455.94
2022-12-31T08:11:08.167Z,100441.88
2022-12-31T08:13:34.792Z,100449.25
2022-12-31T08:16:03.004Z,100459.38
2022-12-31T08:18:29.760Z,100467.03
2022-12-31T08:21:05.741Z,100465.09
2022-12-31T08:23:39.799Z,100461.63
2022-12-31T08:26:17.476Z,100461.63
2022-12-31T08:29:15.040Z,100464.63
2022-12-31T08:31:47.705Z,100465.34
2022-12-31T08:34:25.491Z,100473.97
2022-12-31T08:37:07.410Z,100478.50
2022-12-31T08:39:48.336Z,100473.06
2022-12-31T08:42:25.468Z,100470.06
2022-12-31T08:45:15.888Z,100455.28
2022-12-31T08:48:03.125Z,100458.28
2022-12-31T08:50:30.325Z,100449.06
2022-12-31T08:52:58.303Z,100432.06
2022-12-31T08:55:25.196Z,100449.84
2022-12-31T08:58:10.175Z,100460.25
2022-12-31T09:00:37.694Z,100473.81
2022-12-31T09:03:27.309Z,100464.63
2022-12-31T09:06:04.399Z,100463.72
2022-12-31T09:08:45.991Z,100471.09
2022-12-31T09:11:14.322Z,100462.22
2022-12-31T09:13:53.238Z,100449.84
2022-12-31T09:16:44.582Z,100448.34
2022-12-31T09:19:11.532Z,100454.97
2022-12-31T09:21:44.339Z,100453.78
2022-12-31T09:24:15.847Z,100459.19
2022-12-31T09:27:27.006Z,100462.63
2022-12-31T09:30:13.779Z,100460.72
2022-12-31T09:33:04.751Z,100461.91
2022-12-31T09:35:37.345Z,100470.06
2022-12-31T09:38:11.991Z,100469.31
2022-12-31T09:41:13.493Z,100477.91
2022-12-31T09:43:49.006Z,100470.06
2022-12-31T09:46:21.715Z,100461.16
2022-12-31T09:49:08.396Z,100469.75
2022-12-31T09:51:50.147Z,100468.25
2022-12-31T09:54:29.095Z,100491.91
2022-12-31T09:57:40.525Z,100478.34
2022-12-31T10:00:22.379Z,100474.91
2022-12-31T10:03:12.878Z,100482.28
2022-12-31T10:05:48.323Z,100478.81
2022-12-31T10:08:48.157Z,100476.56
2022-12-31T10:11:37.745Z,100486.66
2022-12-31T10:14:47.379Z,100489.38
2022-12-31T10:17:30.439Z,100477.75
2022-12-31T10:20:05.993Z,100472.34
2022-12-31T10:23:08.526Z,100474.28
2022-12-31T10:26:14.238Z,100463.44
2022-12-31T10:28:50.015Z,100476.56
2022-12-31T10:31:37.478Z,100472.34
2022-12-31T10:34:21.636Z,100479.72
2022-12-31T10:36:54.353Z,100471.88
2022-12-31T10:39:28.928Z,100465.69
2022-12-31T10:42:18.831Z,100454.09
2022-12-31T10:44:54.075Z,100457.09
2022-12-31T10:47:35.660Z,100450.94
2022-12-31T10:50:37.543Z,100442.34
2022-12-31T10:53:06.705Z,100435.41
2022-12-31T10:55:57.382Z,100438.88
2022-12-31T10:58:41.500Z,100434.66
2022-12-31T11:01:11.096Z,100438.13
2022-12-31T11:04:02.480Z,100453.22
2022-12-31T11:06:31.979Z,100455.94
2022-12-31T11:09:29.888Z,100457.09
2022-12-31T11:12:12.759Z,100460.56
2022-12-31T11:15:06.669Z,100457.84
2022-12-31T11:17:45.384Z,100453.22
2022-12-31T11:20:33.847Z,100459.38
2022-12-31T11:23:20.599Z,100466.78
2022-12-31T11:25:59.480Z,100456.66
2022-12-31T11:28:49.860Z,100449.25
2022-12-31T11:31:29.114Z,100451.22
2022-12-31T11:34:10.526Z,100456.19
2022-12-31T11:37:02.909Z,100445.34
2022-12-31T11:39:39.218Z,100452.28
2022-12-31T11:42:26.969Z,100451.53
2022-12-31T11:45:16.558Z,100457.69
2022-12-31T11:48:29.543Z,100465.84
2022-12-31T11:51:14.356Z,100467.34
2022-12-31T11:54:14.953Z,100475.47
2022-12-31T11:56:47.210Z,100464.63
2022-12-31T11:59:19.224Z,100467.34
2022-12-31T12:01:55.296Z,100482.13
2022-12-31T12:04:22.164Z,100477.44
2022-12-31T12:06:48.669Z,100475.47
2022-12-31T12:09:22.254Z,100480.16
2022-12-31T12:11:59.251Z,100453.78
2022-12-31T12:14:31.949Z,100475.47
2022-12-31T12:17:04.724Z,100472.00
2022-12-31T12:19:34.000Z,100466.59
2022-12-31T12:22:13.567Z,100463.88
2022-12-31T12:24:40.269Z,100448.34
2022-12-31T12:27:21.211Z,100436.00
2022-12-31T12:29:48.001Z,100441.72
2022-12-31T12:32:20.534Z,100432.06
2022-12-31T12:34:49.813Z,100439.75
2022-12-31T12:37:34.477Z,100442.91
2022-12-31T12:40:04.398Z,100440.94
2022-12-31T12:42:31.413Z,100443.66
2022-12-31T12:45:08.073Z,100450.59
2022-12-31T12:47:34.957Z,100460.72
2022-12-31T12:50:01.622Z,100458.00
2022-12-31T12:52:55.096Z,100462.63
2022-12-31T12:55:34.330Z,100456.03
2022-12-31T12:58:19.469Z,100449.84
2022-12-31T13:00:49.016Z,100453.78
2022-12-31T13:04:07.276Z,100421.22
2022-12-31T13:06:46.242Z,100431.63
2022-12-31T13:09:39.654Z,100435.50
2022-12-31T13:12:12.186Z,100447.59
2022-12-31T13:15:04.928Z,100452.28
2022-12-31T13:18:07.480Z,100454.97
2022-12-31T13:20:49.066Z,100465.84
2022-12-31T13:23:34.807Z,100472.78
2022-12-31T13:26:10.142Z,100467.78
2022-12-31T13:28:42.334Z,100450.75
2022-12-31T13:31:21.555Z,100460.13
2022-12-31T13:33:56.741Z,100451.97
2022-12-31T13:36:27.222Z,100462.81
2022-12-31T13:38:57.491Z,100463.59
2022-12-31T13:41:48.409Z,100472.94
2022-12-31T13:44:30.456Z,100464.34
2022-12-31T13:46:59.636Z,100468.53
2022-12-31T13:49:31.875Z,100456.66
2022-12-31T13:52:15.706Z,100449.72
2022-12-31T13:55:24.047Z,100453.94
2022-12-31T13:58:18.291Z,100461.34
2022-12-31T14:00:49.277Z,100464.06
2022-12-31T14:03:28.411Z,100467.97
2022-12-31T14:06:00.619Z,100486.66
2022-12-31T14:08:27.887Z,100488.63
2022-12-31T14:11:13.186Z,100494.03
2022-12-31T14:13:45.875Z,100488.31
2022-12-31T14:16:18.455Z,100484.84
2022-12-31T14:19:09.546Z,100504.78
2022-12-31T14:21:47.575Z,100514.09
2022-12-31T14:24:32.826Z,100509.88
2022-12-31T14:27:03.711Z,100493.59
2022-12-31T14:29:41.494Z,100496.03
2022-12-31T14:32:30.046Z,100476.47
2022-12-31T14:35:07.089Z,100479.44
2022-12-31T14:37:46.520Z,100470.56
2022-12-31T14:40:23.673Z,100474.97
2022-12-31T14:43:13.075Z,100488.19
2022-12-31T14:46:00.825Z,100490.44
2022-12-31T14:49:02.625Z,100500.53
2022-12-31T14:51:35.592Z,100511.84
2022-12-31T14:54:02.163Z,100511.41
2022-12-31T14:56:37.179Z,100496.31
2022-12-31T14:59:03.864Z,100494.84
2022-12-31T15:01:30.494Z,100493.34
2022-12-31T15:03:58.138Z,100495.31
2022-12-31T15:06:24.701Z,100496.06
2022-12-31T15:09:28.559Z,100491.50
2022-12-31T15:12:16.807Z,100512.47
2022-12-31T15:15:14.555Z,100524.81
2022-12-31T15:18:05.378Z,100522.56
2022-12-31T15:20:58.061Z,100535.66
2022-12-31T15:23:34.341Z,100541.09
2022-12-31T15:26:02.314Z,100546.09
2022-12-31T15:28:39.098Z,100560.81
2022-12-31T15:31:17.445Z,100547.25
2022-12-31T15:33:59.946Z,100541.09
2022-12-31T15:36:38.883Z,100543.03
2022-12-31T15:39:11.433Z,100547.25
2022-12-31T15:41:55.890Z,100559.31
2022-12-31T15:44:36.731Z,100551.19
2022-12-31T15:47:25.949Z,100556.59
2022-12-31T15:49:53.897Z,100546.84
2022-12-31T15:52:43.402Z,100564.28
2022-12-31T15:55:33.325Z,100568.19
2022-12-31T15:58:06.239Z,100566.25
2022-12-31T16:00:48.833Z,100560.81
2022-12-31T16:03:22.513Z,100566.25
2022-12-31T16:05:49.390Z,100565.81
2022-12-31T16:08:22.254Z,100575.59
2022-12-31T16:10:48.930Z,100589.47
2022-12-31T16:13:21.922Z,100591.41
2022-12-31T16:15:49.765Z,100600.75
2022-12-31T16:18:22.587Z,100585.22
2022-12-31T16:20:51.665Z,100593.09
2022-12-31T16:23:26.283Z,100580.56
2022-12-31T16:25:58.470Z,100580.28
2022-12-31T16:28:30.473Z,100594.56
2022-12-31T16:31:14.761Z,100572.88
2022-12-31T16:33:41.398Z,100599.28
2022-12-31T16:36:20.002Z,100591.59
2022-12-31T16:38:46.442Z,100592.34
2022-12-31T16:41:19.301Z,100594.28
2022-12-31T16:43:48.074Z,100560.69
2022-12-31T16:46:15.066Z,100556.47
2022-12-31T16:48:49.800Z,100595.19
2022-12-31T16:51:20.062Z,100578.19
2022-12-31T16:53:47.472Z,100566.84
2022-12-31T16:56:22.545Z,100559.66
2022-12-31T16:58:49.706Z,100564.63
2022-12-31T17:01:24.769Z,100557.69
2022-12-31T17:03:55.322Z,100555.72
2022-12-31T17:06:22.314Z,100545.63
2022-12-31T17:09:00.933Z,100549.09
2022-12-31T17:11:30.425Z,100534.31
2022-12-31T17:14:05.755Z,100529.63
2022-12-31T17:16:37.097Z,100542.78
2022-12-31T17:19:04.220Z,100567.94
2022-12-31T17:21:32.129Z,100578.78
2022-12-31T17:24:04.859Z,100580.75
2022-12-31T17:26:34.078Z,100592.63
2022-12-31T17:29:02.313Z,100603.47
2022-12-31T17:31:33.516Z,100588.69
2022-12-31T17:34:12.150Z,100597.63
2022-12-31T17:36:40.161Z,100602.25
2022-12-31T17:39:21.206Z,100584.06
2022-12-31T17:41:50.653Z,100586.31
2022-12-31T17:44:21.522Z,100596.41
2022-12-31T17:46:51.561Z,100594.44
2022-12-31T17:49:21.891Z,100592.75
2022-12-31T17:51:48.382Z,100580.41
2022-12-31T17:54:16.378Z,100585.84
2022-12-31T17:56:43.888Z,100588.09
2022-12-31T17:59:17.720Z,100587.34
2022-12-31T18:01:44.750Z,100581.91
2022-12-31T18:04:16.720Z,100577.25
2022-12-31T18:06:43.797Z,100573.34
2022-12-31T18:09:10.586Z,100560.53
2022-12-31T18:11:38.494Z,100563.97
2022-12-31T18:14:05.034Z,100563.97
2022-12-31T18:16:31.629Z,100560.81
2022-12-31T18:19:00.135Z,100562.78
2022-12-31T18:21:34.715Z,100555.84
2022-12-31T18:26:33.007Z,100544.53
2022-12-31T18:29:02.304Z,100553.44
2022-12-31T18:31:30.990Z,100549.53
2022-12-31T18:33:59.284Z,100539.88
2022-12-31T18:36:28.686Z,100546.81
2022-12-31T18:38:55.188Z,100541.41
2022-12-31T18:41:24.363Z,100535.97
2022-12-31T18:43:51.100Z,100531.31
2022-12-31T18:46:20.200Z,100532.47
2022-12-31T18:48:46.824Z,100545.28
2022-12-31T18:51:16.344Z,100557.69
2022-12-31T18:53:43.180Z,100564.59
2022-12-31T18:56:15.478Z,100567.31
2022-12-31T18:58:42.552Z,100578.19
2022-12-31T19:01:30.749Z,100570.75
2022-12-31T19:04:03.134Z,100566.56
2022-12-31T19:06:30.472Z,100559.91
2022-12-31T19:08:57.025Z,100574.22
2022-12-31T19:11:23.803Z,100563.38
2022-12-31T19:13:50.526Z,100556.47
2022-12-31T19:16:17.990Z,100559.47
2022-12-31T19:18:44.887Z,100566.84
2022-12-31T19:21:16.923Z,100575.72
2022-12-31T19:23:43.697Z,100573.34
2022-12-31T19:26:15.453Z,100573.34
2022-12-31T19:28:42.490Z,100578.28
2022-12-31T19:31:08.921Z,100584.47
2022-12-31T19:33:35.458Z,100581.31
2022-12-31T19:36:02.187Z,100574.38
2022-12-31T19:38:29.161Z,100579.81
2022-12-31T19:40:55.854Z,100586.72
2022-12-31T19:43:23.533Z,100581.31
2022-12-31T19:45:51.134Z,100589.00
2022-12-31T19:48:22.845Z,100592.94
2022-12-31T19:50:53.614Z,100599.09
2022-12-31T19:53:25.658Z,100598.38
2022-12-31T19:55:53.336Z,100598.38
2022-12-31T19:58:25.599Z,100601.34
2022-12-31T20:00:59.632Z,100607.53
2022-12-31T20:03:28.958Z,100595.94
2022-12-31T20:06:07.126Z,100588.53
2022-12-31T20:08:35.111Z,100575.72
2022-12-31T20:11:19.183Z,100574.22
2022-12-31T20:13:47.301Z,100569.53
2022-12-31T20:16:16.870Z,100580.84
2022-12-31T20:18:44.427Z,100563.09
2022-12-31T20:21:17.816Z,100573.47
2022-12-31T20:23:44.882Z,100574.66
2022-12-31T20:26:11.593Z,100580.41
2022-12-31T20:28:38.249Z,100578.13
2022-12-31T20:31:07.331Z,100586.28
2022-12-31T20:33:34.735Z,100594.41
2022-12-31T20:36:03.224Z,100592.47
2022-12-31T20:38:29.823Z,100600.59
2022-12-31T20:41:03.020Z,100600.59
2022-12-31T20:43:33.920Z,100610.69
2022-12-31T20:46:09.432Z,100601.34
2022-12-31T20:48:40.922Z,100599.09
2022-12-31T20:51:07.460Z,100606.03
2022-12-31T20:53:33.924Z,100610.69
2022-12-31T20:56:05.168Z,100609.94
2022-12-31T20:58:34.483Z,100618.09
2022-12-31T21:01:01.606Z,100612.34
2022-12-31T21:04:03.662Z,100630.91
2022-12-31T21:06:15.602Z,100620.78
2022-12-31T21:08:42.471Z,100618.84
2022-12-31T21:11:28.195Z,100628.22
2022-12-31T21:13:56.159Z,100623.50
2022-12-31T21:16:22.954Z,100625.50
2022-12-31T21:18:49.515Z,100612.34
2022-12-31T21:21:16.129Z,100622.28
2022-12-31T21:23:42.607Z,100628.94
2022-12-31T21:26:09.022Z,100623.50
2022-12-31T21:28:35.728Z,100616.13
2022-12-31T21:31:05.432Z,100611.00
2022-12-31T21:33:31.968Z,100609.03
2022-12-31T21:36:04.251Z,100613.72
2022-12-31T21:38:31.267Z,100620.63
2022-12-31T21:41:05.463Z,100609.50
2022-12-31T21:43:32.031Z,100614.16
2022-12-31T21:46:06.961Z,100606.78
2022-12-31T21:48:34.020Z,100596.38
2022-12-31T21:51:13.152Z,100592.94
2022-12-31T21:53:40.188Z,100586.56
2022-12-31T21:56:11.177Z,100577.38
2022-12-31T21:58:42.843Z,100593.97
2022-12-31T22:01:36.206Z,100598.63
2022-12-31T22:04:02.923Z,100600.59
2022-12-31T22:06:30.105Z,100611.44
2022-12-31T22:08:57.081Z,100617.63
2022-12-31T22:11:26.371Z,100619.59
2022-12-31T22:13:53.792Z,100618.84
2022-12-31T22:16:21.841Z,100618.38
2022-12-31T22:18:49.506Z,100614.16
2022-12-31T22:21:21.865Z,100632.41
2022-12-31T22:23:50.839Z,100633.44
2022-12-31T22:26:18.835Z,100635.41
2022-12-31T22:28:46.377Z,100630.00
2022-12-31T22:31:14.886Z,100633.44
2022-12-31T22:33:42.392Z,100633.16
2022-12-31T22:36:12.802Z,100632.41
2022-12-31T22:38:39.314Z,100653.66
2022-12-31T22:41:09.893Z,100632.09
2022-12-31T22:43:40.522Z,100631.34
2022-12-31T22:46:15.898Z,100649.56
2022-12-31T22:48:42.741Z,100648.56
2022-12-31T22:51:10.285Z,100661.78
2022-12-31T22:53:38.572Z,100649.13
2022-12-31T22:56:05.724Z,100660.28
2022-12-31T22:58:32.265Z,100666.94
2022-12-31T23:00:58.783Z,100663.13
2022-12-31T23:03:25.294Z,100663.13
2022-12-31T23:05:52.570Z,100661.63
2022-12-31T23:08:23.234Z,100665.84
2022-12-31T23:11:05.465Z,100660.56
2022-12-31T23:13:56.863Z,100659.53
2022-12-31T23:16:44.239Z,100671.59
2022-12-31T23:19:30.032Z,100667.34
2022-12-31T23:22:15.504Z,100664.63
2022-12-31T23:24:42.230Z,100675.66
2022-12-31T23:27:11.509Z,100683.47
2022-12-31T23:29:45.601Z,100671.13
2022-12-31T23:32:14.648Z,100674.28
2022-12-31T23:34:41.131Z,100666.91
2022-12-31T23:37:07.681Z,100657.25
2022-12-31T23:39:34.157Z,100652.28
2022-12-31T23:42:00.989Z,100646.41
2022-12-31T23:44:28.437Z,100654.56
2022-12-31T23:46:55.255Z,100651.84
2022-12-31T23:49:21.776Z,100647.59
2022-12-31T23:51:48.628Z,100653.00
2022-12-31T23:54:15.831Z,100656.97
2022-12-31T23:56:42.400Z,100655.91
2022-12-31T23:59:10.546Z,100654.38
